This is the latest recevied weather packets stored in our database for station/object AA8FM-13. If no packets are shown the sender has not sent any weather packets the latest 10 day(s).
| Time | Temp. | Humidity | Pressure | Rain* | Wind** | Luminosity | Snow |
|---|---|---|---|---|---|---|---|
| 1777392268 | 17.22° C | 83% | 1012.5 hPa | 0 mm | - | 72 W/m² | - |
| 1777391964 | 17.22° C | 84% | 1012.4 hPa | 0 mm | - | 64 W/m² | - |
| 1777391659 | 17.22° C | 83% | 1012.3 hPa | 0 mm | - | 58 W/m² | - |
| 1777391355 | 17.22° C | 84% | 1012.3 hPa | 0 mm | - | 83 W/m² | - |
| 1777391052 | 17.22° C | 82% | 1012.3 hPa | 0 mm | - | 77 W/m² | - |
| 1777390748 | 17.22° C | 82% | 1012.4 hPa | 0 mm | - | 79 W/m² | - |
| 1777390445 | 17.78° C | 81% | 1012 hPa | 0 mm | - | 80 W/m² | - |
| 1777390141 | 17.78° C | 81% | 1012.2 hPa | 0 mm | - | 118 W/m² | - |
| 1777389838 | 18.33° C | 80% | 1012.1 hPa | 0 mm | - | 183 W/m² | - |
| 1777389535 | 18.33° C | 80% | 1012 hPa | 0 mm | - | 292 W/m² | - |
| 1777389231 | 17.78° C | 81% | 1012 hPa | 0 mm | - | 289 W/m² | - |
| 1777388930 | 17.78° C | 81% | 1011.9 hPa | 0 mm | - | 289 W/m² | - |
| 1777388626 | 17.22° C | 82% | 1012 hPa | 0 mm | - | 308 W/m² | - |
| 1777388323 | 17.22° C | 83% | 1012 hPa | 0 mm | - | 234 W/m² | - |
| 1777388022 | 16.67° C | 83% | 1012 hPa | 0 mm | - | 219 W/m² | - |
| 1777387719 | 16.67° C | 83% | 1012 hPa | 0 mm | - | 195 W/m² | - |
| 1777387415 | 16.67° C | 83% | 1011.9 hPa | 0 mm | - | 128 W/m² | - |
| 1777387115 | 16.67° C | 84% | 1011.9 hPa | 0 mm | - | 197 W/m² | - |
| 1777386811 | 16.67° C | 84% | 1011.9 hPa | 0 mm | - | 323 W/m² | - |
| 1777386509 | 16.11° C | 86% | 1012.1 hPa | 0 mm | - | 258 W/m² | - |
| 1777386205 | 16.11° C | 85% | 1012.1 hPa | 0 mm | - | 240 W/m² | - |
| 1777385903 | 15.56° C | 87% | 1012.1 hPa | 0 mm | - | 198 W/m² | - |
| 1777385599 | 15.56° C | 89% | 1011.9 hPa | 0 mm | - | 196 W/m² | - |
| 1777385297 | 15.56° C | 87% | 1011.8 hPa | 0 mm | - | 195 W/m² | - |
| 1777384992 | 15° C | 89% | 1011.7 hPa | 0 mm | - | 175 W/m² | - |
* Rain latest hour (hover to see other rain measurements)
** Current wind speed in m/s (hover to see current wind gust speed)